Flight Track Log - Related Links

Times and Time Zones

All times are in EDT time to prevent confusion due to time zone crossing. See the UAL3747 flight status page for this flight to view local times or setup timezone preferences in your user account.


Time Position Orientation Groundspeed Altitude Reporting Facility
EDT Latitude Longitude Course Direction KTS MPH feet Rate Location/Type
Thu 05:41:32 PM 44.4972 -73.3625 255° West 235 270 6,600  Level Boston Center
Thu 05:42:00 PM 44.3645 -73.7150 259° West  Level FlightAware Approximate
Thu 05:42:32 PM 44.4753 -73.4786 255° West 266 306 9,300  Level Boston Center
Thu 05:43:00 PM 44.3441 -73.8581 259° West  Level FlightAware Approximate
Thu 05:43:32 PM 44.4536 -73.5858 254° West 298 343 10,100  Level Boston Center
Thu 05:44:00 PM 44.3207 -74.0001 255° West  Level FlightAware Approximate
Thu 05:44:32 PM 44.4247 -73.7394 255° West 361 415 12,300  Level Boston Center
Thu 05:45:00 PM 44.2939 -74.1410 255° West  Level FlightAware Approximate
Thu 05:45:32 PM 44.3983 -73.8783 255° West 375 432 14,300  Level Boston Center
Thu 05:46:00 PM 44.2670 -74.2818 255° West  Level FlightAware Approximate
Thu 05:46:32 PM 44.3669 -74.0286 254° West 386 444 16,400  Level Boston Center
Thu 05:47:44 PM 44.3422 -74.1614 255° West 392 451 17,900 1,773 Climbing Boston Center
Thu 05:48:44 PM 44.3083 -74.3375 255° West 397 457 20,300 2,000 Climbing Boston Center
Thu 05:49:44 PM 44.2764 -74.4872 253° West 397 457 21,900 1,550 Climbing Boston Center
Thu 05:50:44 PM 44.2464 -74.6428 255° West 404 465 23,400 1,550 Climbing Boston Center
Thu 05:51:44 PM 44.2164 -74.7981 255° West 411 473 25,000 1,250 Climbing Boston Center
Thu 05:53:08 PM 44.1811 -74.9847 255° West 416 479 26,400 1,125 Climbing Boston Center
Thu 05:54:08 PM 44.1289 -75.1678 248° West 416 479 27,700 1,000 Climbing Boston Center
Thu 05:55:20 PM 44.0772 -75.3244 245° Southwest 433 498 28,600 1,091 Climbing Boston Center
Thu 05:56:20 PM 44.0142 -75.5061 244° Southwest 445 512 30,100 1,450 Climbing Boston Center
Thu 05:57:20 PM 43.9661 -75.6594 247° West 440 506 31,500 1,300 Climbing Boston Center
Thu 05:58:20 PM 43.9203 -75.8069 247° West 435 501 32,700 1,150 Climbing Boston Center
Thu 05:59:20 PM 43.8742 -75.9569 247° West 430 495 33,800 909 Climbing Boston Center
Thu 06:00:32 PM 43.8567 -76.1117 261° West 424 488 34,700 818 Climbing Boston Center
Thu 06:01:32 PM 43.8775 -76.3003 279° West 402 463 35,600 591 Climbing Boston Center
Thu 06:02:44 PM 43.8764 -76.4586 269° West 407 468 36,000 182 Climbing Boston Center
Thu 06:03:44 PM 43.8611 -76.6506 264° West 417 480 36,000  Level Boston Center
Thu 06:04:19 PM 43.8500 -76.7500 261° West 440 506 36,000  Level Toronto Center
Thu 06:05:19 PM 43.8333 -76.9333 263° West 440 506 36,000  Level Toronto Center
Thu 06:06:19 PM 43.8167 -77.0833 261° West 440 506 36,000  Level Toronto Center
Thu 06:07:19 PM 43.8000 -77.2500 262° West 440 506 36,000  Level Toronto Center
Thu 06:08:19 PM 43.8000 -77.4333 270° West 440 506 36,000  Level Toronto Center
Thu 06:09:19 PM 43.7833 -77.6000 262° West 440 506 36,000  Level Toronto Center
Thu 06:10:19 PM 43.7667 -77.7667 262° West 440 506 36,000  Level Toronto Center
Thu 06:11:19 PM 43.7500 -77.9167 261° West 450 518 36,000  Level Toronto Center
Thu 06:12:19 PM 43.7333 -78.1167 263° West 440 506 36,000  Level Toronto Center
Thu 06:13:19 PM 43.7167 -78.2667 261° West 440 506 36,000  Level Toronto Center
Thu 06:14:19 PM 43.7000 -78.4333 262° West 440 506 36,000  Level Toronto Center
Thu 06:15:19 PM 43.7000 -78.6167 270° West 440 506 36,000  Level Toronto Center
Thu 06:16:19 PM 43.6833 -78.7833 262° West 440 506 36,000  Level Toronto Center
Thu 06:17:19 PM 43.6667 -78.9333 261° West 440 506 36,000  Level Toronto Center
Thu 06:18:19 PM 43.6500 -79.1000 262° West 440 506 36,000  Level Toronto Center
Thu 06:19:19 PM 43.6333 -79.2833 263° West 440 506 36,000  Level Toronto Center
Thu 06:20:19 PM 43.6000 -79.4500 255° West 440 506 36,000  Level Toronto Center
Thu 06:21:19 PM 43.6000 -79.6167 270° West 450 518 36,000  Level Toronto Center
Thu 06:22:19 PM 43.5833 -79.8000 263° West 460 529 36,000  Level Toronto Center
Thu 06:23:19 PM 43.5500 -79.9500 253° West 450 518 36,000  Level Toronto Center
Thu 06:24:19 PM 43.5333 -80.1333 263° West 450 518 36,000  Level Toronto Center
Thu 06:25:19 PM 43.5167 -80.3000 262° West 450 518 36,000  Level Toronto Center
Thu 06:26:19 PM 43.4833 -80.4667 255° West 440 506 36,000  Level Toronto Center
Thu 06:27:19 PM 43.4667 -80.6167 261° West 440 506 36,000  Level Toronto Center
Thu 06:28:19 PM 43.4333 -80.8000 256° West 440 506 36,000  Level Toronto Center
Thu 06:29:19 PM 43.4000 -80.9667 255° West 440 506 36,000  Level Toronto Center
Thu 06:30:19 PM 43.3833 -81.1167 261° West 440 506 36,000  Level Toronto Center
Thu 06:31:19 PM 43.3500 -81.2833 255° West 440 506 36,000  Level Toronto Center
Thu 06:32:19 PM 43.3333 -81.4667 263° West 440 506 36,000  Level Toronto Center
Thu 06:33:19 PM 43.3167 -81.6000 260° West 440 506 36,000  Level Toronto Center
Thu 06:34:19 PM 43.2833 -81.7833 256° West 440 506 36,000  Level Toronto Center
Thu 06:35:19 PM 43.2500 -81.9500 255° West 440 506 36,000  Level Toronto Center
Thu 06:36:19 PM 43.2333 -82.1000 261° West 440 506 36,000  Level Toronto Center
Thu 06:37:19 PM 43.2000 -82.2667 255° West 440 506 36,000  Level Toronto Center
Thu 06:38:19 PM 43.1833 -82.4500 263° West 440 506 36,000 -500 Level Toronto Center
Thu 06:39:19 PM 43.1667 -82.6000 261° West 440 506 35,000 -1,009 Descending Toronto Center
Thu 06:40:12 PM 43.1381 -82.7483 255° West 446 513 34,100 -1,009 Descending Cleveland Center
Thu 06:41:12 PM 43.1097 -82.9122 257° West 446 513 33,100 -1,000 Descending Cleveland Center
Thu 06:42:12 PM 43.0814 -83.0789 257° West 451 519 32,100 -550 Descending Cleveland Center
Thu 06:43:12 PM 43.0547 -83.2483 258° West 451 519 32,000 -50 Descending Cleveland Center
Thu 06:44:12 PM 43.0236 -83.4147 256° West 451 519 32,000  Level Cleveland Center
Thu 06:45:12 PM 42.9942 -83.5892 257° West 451 519 32,000  Level Cleveland Center
Thu 06:46:12 PM 42.9667 -83.7583 258° West 456 525 32,000  Level Cleveland Center
Thu 06:47:12 PM 42.9472 -83.9303 261° West 461 531 32,000  Level Cleveland Center
Thu 06:48:12 PM 42.9317 -84.1053 263° West 467 537 32,000  Level Cleveland Center
Thu 06:49:12 PM 42.9136 -84.2831 262° West 467 537 32,000  Level Cleveland Center
Thu 06:50:28 PM 42.8931 -84.4989 263° West 468 539 32,000  Level Chicago Center
Thu 06:51:30 PM 42.8761 -84.6750 263° West 469 540 32,000  Level Chicago Center
Thu 06:52:32 PM 42.8572 -84.8486 262° West 467 537 32,000  Level Chicago Center
Thu 06:53:34 PM 42.8386 -85.0236 262° West 467 537 32,000 -48 Level Chicago Center
Thu 06:54:36 PM 42.8200 -85.1972 262° West 466 536 31,900 -1,065 Descending Chicago Center
Thu 06:55:38 PM 42.8011 -85.3692 262° West 461 531 29,800 -2,274 Descending Chicago Center
Thu 06:56:40 PM 42.7747 -85.5672 260° West 447 514 27,200 -2,274 Descending Chicago Center
Thu 06:57:42 PM 42.7456 -85.7256 256° West 433 498 25,100 -2,032 Descending Chicago Center
Thu 06:58:44 PM 42.7181 -85.8786 256° West 418 481 23,000 -1,887 Descending Chicago Center
Thu 06:59:46 PM 42.6914 -86.0244 256° West 399 459 21,200 -1,452 Descending Chicago Center
Thu 07:00:48 PM 42.6656 -86.1608 256° West 377 434 20,000 -581 Descending Chicago Center
Thu 07:01:50 PM 42.6414 -86.2969 256° West 370 426 20,000 -194 Level Chicago Center
Thu 07:02:52 PM 42.6142 -86.4339 255° West 374 430 19,600 -1,016 Descending Chicago Center
Thu 07:03:54 PM 42.5892 -86.5722 256° West 377 434 17,900 -1,742 Descending Chicago Center
Thu 07:04:00 PM 42.5724 -86.5934 256° West  Level FlightAware Approximate
Thu 07:04:56 PM 42.5586 -86.7353 256° West 372 428 16,000  Level Chicago Center
Thu 07:05:58 PM 42.5242 -86.8642 250° West 366 421 14,300 -1,645 Descending Chicago Center
Thu 07:07:00 PM 42.4889 -86.9917 249° West 363 418 12,600 -1,659 Descending Chicago Center
Thu 07:08:01 PM 42.4539 -87.1142 249° West 352 405 10,900 -1,268 Descending Chicago Center
Thu 07:09:03 PM 42.4206 -87.2358 250° West 348 400 10,000 -435 Descending Chicago Center
Thu 07:10:05 PM 42.3869 -87.3603 250° West 354 407 10,000 -97 Level Chicago Center
Thu 07:11:07 PM 42.3536 -87.4814 250° West 324 373 9,800 -919 Descending Chicago Center
Thu 07:12:09 PM 42.3117 -87.5619 235° Southwest 277 319 8,100 -1,355 Descending Chicago Center
Thu 07:13:11 PM 42.2439 -87.6347 218° Southwest 261 300 7,000 -532 Descending Chicago Center
Thu 07:14:13 PM 42.1869 -87.6942 218° Southwest 260 299 7,000  Level Chicago Center
Thu 07:15:15 PM 42.1303 -87.7539 218° Southwest 259 298 7,000  Level Chicago Center
Thu 07:16:17 PM 42.0914 -87.8336 237° Southwest 272 313 7,000  Level Chicago Center
Thu 07:16:32 PM 42.1000 -87.8667 289° West 283 326 7,000  Level Chicago TRACON
Thu 07:17:33 PM 42.1000 -87.9833 270° West 283 326 7,000  Level Chicago TRACON
Thu 07:18:27 PM 42.1000 -88.0667 270° West 279 321 7,000 -764 Level Chicago TRACON
Thu 07:19:23 PM 42.0911 -88.1667 263° West 279 321 5,600 -1,017 Descending Chicago Center
Thu 07:20:25 PM 42.0908 -88.2647 270° West 271 312 5,000 -290 Descending Chicago Center
Thu 07:21:27 PM 42.0894 -88.3536 269° West 251 289 5,000  Level Chicago Center
Thu 07:22:29 PM 42.0408 -88.3836 205° Southwest 224 258 5,000  Level Chicago Center
Thu 07:23:31 PM 41.9903 -88.3517 155° Southeast 185 213 5,000  Level Chicago Center
Thu 07:24:33 PM 41.9697 -88.2914 115° Southeast 181 208 5,000  Level Chicago Center
Thu 07:25:35 PM 41.9669 -88.2253 93° East 182 209 5,000 -435 Level Chicago Center
Thu 07:26:37 PM 41.9681 -88.1586 89° East 180 207 4,100 -919 Descending Chicago Center
Thu 07:27:39 PM 41.9678 -88.0914 90° East 181 208 3,100 -1,029 Descending Chicago Center
Thu 07:28:22 PM 41.9667 -88.0333 91° East 169 194 2,300 -1,116 Descending Chicago TRACON

Login

Don't have an account? Register now (free) for customized features, flight alerts, and more!